createdAt,value
2022-08-24T00:00:35.362Z,4.80
2022-08-24T00:03:02.951Z,4.60
2022-08-24T00:05:30.352Z,4.30
2022-08-24T00:07:58.629Z,4.20
2022-08-24T00:10:26.720Z,4.50
2022-08-24T00:12:53.924Z,4.40
2022-08-24T00:15:21.431Z,4.40
2022-08-24T00:17:48.765Z,4.10
2022-08-24T00:20:15.904Z,4.40
2022-08-24T00:22:43.839Z,4.60
2022-08-24T00:25:12.519Z,4.40
2022-08-24T00:27:40.109Z,4.30
2022-08-24T00:30:09.476Z,4.70
2022-08-24T00:32:37.938Z,4.50
2022-08-24T00:35:06.887Z,4.50
2022-08-24T00:37:35.372Z,4.60
2022-08-24T00:40:10.481Z,4.70
2022-08-24T00:45:10.657Z,4.20
2022-08-24T00:47:48.583Z,4.30
2022-08-24T00:50:23.142Z,4.50
2022-08-24T00:52:53.876Z,4.70
2022-08-24T00:55:23.598Z,4.60
2022-08-24T00:57:52.040Z,4.90
2022-08-24T01:00:23.249Z,4.70
2022-08-24T01:02:53.306Z,5.10
2022-08-24T01:05:20.802Z,4.20
2022-08-24T01:07:49.567Z,4.70
2022-08-24T01:10:21.356Z,4.60
2022-08-24T01:13:00.141Z,4.90
2022-08-24T01:15:30.160Z,4.50
2022-08-24T01:18:16.831Z,4.80
2022-08-24T01:20:46.253Z,4.30
2022-08-24T01:23:39.790Z,4.30
2022-08-24T01:26:09.538Z,4.10
2022-08-24T01:28:40.159Z,4.20
2022-08-24T01:31:11.074Z,3.90
2022-08-24T01:33:38.437Z,4.00
2022-08-24T01:36:28.198Z,4.50
2022-08-24T01:38:57.080Z,4.10
2022-08-24T01:41:28.734Z,4.40
2022-08-24T01:43:58.085Z,4.50
2022-08-24T01:46:26.094Z,4.10
2022-08-24T01:48:53.541Z,4.60
2022-08-24T01:51:21.358Z,4.20
2022-08-24T01:53:49.312Z,3.80
2022-08-24T01:56:16.756Z,3.70
2022-08-24T01:58:47.706Z,3.90
2022-08-24T02:01:16.975Z,4.00
2022-08-24T02:03:44.516Z,4.00
2022-08-24T02:06:12.513Z,3.90
2022-08-24T02:08:39.651Z,4.30
2022-08-24T02:11:08.852Z,4.10
2022-08-24T02:16:05.728Z,3.50
2022-08-24T02:18:35.261Z,3.80
2022-08-24T02:21:02.722Z,4.00
2022-08-24T02:23:29.869Z,3.80
2022-08-24T02:25:56.982Z,4.20
2022-08-24T02:28:24.887Z,4.00
2022-08-24T02:30:53.659Z,3.60
2022-08-24T02:33:23.642Z,4.10
2022-08-24T02:35:51.902Z,3.80
2022-08-24T02:40:47.377Z,3.60
2022-08-24T02:43:14.683Z,3.60
2022-08-24T02:45:47.160Z,3.70
2022-08-24T02:48:18.307Z,3.90
2022-08-24T02:50:48.766Z,3.40
2022-08-24T02:53:17.533Z,3.90
2022-08-24T02:55:45.259Z,3.60
2022-08-24T02:58:15.183Z,3.60
2022-08-24T03:03:11.713Z,3.70
2022-08-24T03:05:40.077Z,3.90
2022-08-24T03:08:07.473Z,3.60
2022-08-24T03:10:35.557Z,3.60
2022-08-24T03:13:03.961Z,3.90
2022-08-24T03:17:59.679Z,3.90
2022-08-24T03:20:27.672Z,4.30
2022-08-24T03:22:57.276Z,3.70
2022-08-24T03:25:27.052Z,3.60
2022-08-24T03:27:54.472Z,3.60
2022-08-24T03:30:21.795Z,3.70
2022-08-24T03:32:49.429Z,4.10
2022-08-24T03:35:17.270Z,4.00
2022-08-24T03:37:44.622Z,3.80
2022-08-24T03:40:23.188Z,3.00
2022-08-24T03:42:54.892Z,2.60
2022-08-24T03:45:23.111Z,3.90
2022-08-24T03:47:50.179Z,3.60
2022-08-24T03:50:18.452Z,3.50
2022-08-24T03:52:45.757Z,3.40
2022-08-24T03:55:13.829Z,3.50
2022-08-24T03:57:41.599Z,3.80
2022-08-24T04:00:10.899Z,3.70
2022-08-24T04:02:49.204Z,3.90
2022-08-24T04:05:19.361Z,3.90
2022-08-24T04:07:47.289Z,3.80
2022-08-24T04:10:15.243Z,3.70
2022-08-24T04:12:43.376Z,3.60
2022-08-24T04:15:12.503Z,3.60
2022-08-24T04:17:40.652Z,3.40
2022-08-24T04:20:09.273Z,3.20
2022-08-24T04:22:39.155Z,3.30
2022-08-24T04:25:09.642Z,3.30
2022-08-24T04:27:39.824Z,3.30
2022-08-24T04:30:08.276Z,3.20
2022-08-24T04:32:48.935Z,3.60
2022-08-24T04:35:16.353Z,3.10
2022-08-24T04:37:43.571Z,3.30
2022-08-24T04:40:11.879Z,3.60
2022-08-24T04:42:45.827Z,3.40
2022-08-24T04:45:16.396Z,3.20
2022-08-24T04:47:46.615Z,3.60
2022-08-24T04:50:13.998Z,3.20
2022-08-24T04:52:42.242Z,3.30
2022-08-24T04:55:10.070Z,3.30
2022-08-24T04:57:37.556Z,3.30
2022-08-24T05:00:06.568Z,3.20
2022-08-24T05:02:38.192Z,3.30
2022-08-24T05:05:10.695Z,3.70
2022-08-24T05:07:39.440Z,2.80
2022-08-24T05:10:07.546Z,2.80
2022-08-24T05:12:36.660Z,2.80
2022-08-24T05:15:06.140Z,3.00
2022-08-24T05:17:41.045Z,3.20
2022-08-24T05:20:11.447Z,2.80
2022-08-24T05:22:39.617Z,3.10
2022-08-24T05:25:07.623Z,3.00
2022-08-24T05:27:36.690Z,3.10
2022-08-24T05:30:05.753Z,2.80
2022-08-24T05:32:33.013Z,3.20
2022-08-24T05:35:01.475Z,2.90
2022-08-24T05:37:28.955Z,3.00
2022-08-24T05:40:17.057Z,2.70
2022-08-24T05:42:48.625Z,2.50
2022-08-24T05:45:16.424Z,3.00
2022-08-24T05:47:44.002Z,3.10
2022-08-24T05:50:23.691Z,2.80
2022-08-24T05:52:51.336Z,2.70
2022-08-24T05:55:19.918Z,2.40
2022-08-24T05:57:47.286Z,3.10
2022-08-24T06:00:23.445Z,3.20
2022-08-24T06:02:53.075Z,3.10
2022-08-24T06:05:21.702Z,2.70
2022-08-24T06:07:50.073Z,3.20
2022-08-24T06:10:35.912Z,2.70
2022-08-24T06:17:00.109Z,2.60
2022-08-24T06:19:27.651Z,2.50
2022-08-24T06:21:55.390Z,2.50
2022-08-24T06:24:43.117Z,2.60
2022-08-24T06:27:21.851Z,3.20
2022-08-24T06:30:01.063Z,2.80
2022-08-24T06:33:01.303Z,2.90
2022-08-24T06:35:34.285Z,2.50
2022-08-24T06:38:01.892Z,2.20
2022-08-24T06:40:29.485Z,2.80
2022-08-24T06:42:57.373Z,2.70
2022-08-24T06:45:44.958Z,2.90
2022-08-24T06:48:13.700Z,3.10
2022-08-24T06:50:41.379Z,2.30
2022-08-24T06:53:08.640Z,2.40
2022-08-24T06:55:36.083Z,2.60
2022-08-24T06:58:03.914Z,2.60
2022-08-24T07:00:31.426Z,2.80
2022-08-24T07:02:59.013Z,2.50
2022-08-24T07:08:18.954Z,2.40
2022-08-24T07:10:47.029Z,2.50
2022-08-24T07:13:19.004Z,2.80
2022-08-24T07:15:47.360Z,2.60
2022-08-24T07:18:15.513Z,2.80
2022-08-24T07:20:46.671Z,2.50
2022-08-24T07:23:19.071Z,2.70
2022-08-24T07:25:48.985Z,2.40
2022-08-24T07:28:44.965Z,2.80
2022-08-24T07:31:14.131Z,2.90
2022-08-24T07:33:47.490Z,2.90
2022-08-24T07:36:21.876Z,2.60
2022-08-24T07:41:51.345Z,2.50
2022-08-24T07:44:11.277Z,2.70
2022-08-24T07:49:11.938Z,2.90
2022-08-24T07:51:44.933Z,2.70
2022-08-24T07:54:15.131Z,2.90
2022-08-24T07:56:43.165Z,2.80
2022-08-24T07:59:13.280Z,2.50
2022-08-24T08:01:41.712Z,3.00
2022-08-24T08:04:10.824Z,2.80
2022-08-24T08:06:38.616Z,2.90
2022-08-24T08:09:06.659Z,2.90
2022-08-24T08:11:35.313Z,3.00
2022-08-24T08:14:02.838Z,2.80
2022-08-24T08:16:30.325Z,2.90
2022-08-24T08:19:09.191Z,3.00
2022-08-24T08:22:03.678Z,2.80
2022-08-24T08:24:33.243Z,2.50
2022-08-24T08:27:01.346Z,2.50
2022-08-24T08:29:32.848Z,2.80
2022-08-24T08:32:00.859Z,2.60
2022-08-24T08:34:29.770Z,2.60
2022-08-24T08:36:57.576Z,3.40
2022-08-24T08:39:26.330Z,3.00
2022-08-24T08:42:05.936Z,3.00
2022-08-24T08:44:45.771Z,3.00
2022-08-24T08:47:44.687Z,3.50
2022-08-24T08:50:25.934Z,2.90
2022-08-24T08:53:27.159Z,2.90
2022-08-24T08:56:01.406Z,2.60
2022-08-24T08:58:53.749Z,2.70
2022-08-24T09:01:51.492Z,2.60
2022-08-24T09:04:48.153Z,2.80
2022-08-24T09:07:27.919Z,3.40
2022-08-24T09:10:14.139Z,3.00
2022-08-24T09:12:52.486Z,3.30
2022-08-24T09:15:41.489Z,3.00
2022-08-24T09:18:20.840Z,2.80
2022-08-24T09:21:25.759Z,3.20
2022-08-24T09:24:05.944Z,2.60
2022-08-24T09:26:41.207Z,2.90
2022-08-24T09:29:19.006Z,3.00
2022-08-24T09:31:58.370Z,2.90
2022-08-24T09:34:25.617Z,2.90
2022-08-24T09:37:31.823Z,3.10
2022-08-24T09:40:09.754Z,2.70
2022-08-24T09:42:43.310Z,2.70
2022-08-24T09:45:44.647Z,3.00
2022-08-24T09:48:33.810Z,2.50
2022-08-24T09:51:08.193Z,3.00
2022-08-24T09:54:00.286Z,3.00
2022-08-24T09:56:35.179Z,3.00
2022-08-24T09:59:12.684Z,2.50
2022-08-24T10:01:43.229Z,2.50
2022-08-24T10:04:38.693Z,2.40
2022-08-24T10:07:22.594Z,2.00
2022-08-24T10:10:06.526Z,2.70
2022-08-24T10:12:56.604Z,2.20
2022-08-24T10:15:28.830Z,2.50
2022-08-24T10:18:18.223Z,2.40
2022-08-24T10:21:08.935Z,1.90
2022-08-24T10:23:45.464Z,2.00
2022-08-24T10:26:21.177Z,2.00
2022-08-24T10:29:07.110Z,2.20
2022-08-24T10:31:48.538Z,2.00
2022-08-24T10:38:12.785Z,2.30
2022-08-24T10:40:52.557Z,2.40
2022-08-24T10:43:55.239Z,1.80
2022-08-24T10:46:25.597Z,1.90
2022-08-24T10:49:44.255Z,2.10
2022-08-24T10:52:27.142Z,2.40
2022-08-24T10:54:54.712Z,2.00
2022-08-24T10:57:33.719Z,2.00
2022-08-24T11:00:18.258Z,1.90
2022-08-24T11:03:06.017Z,1.90
2022-08-24T11:05:38.921Z,2.00
2022-08-24T11:08:07.087Z,2.90
2022-08-24T11:10:36.439Z,2.10
2022-08-24T11:13:17.546Z,1.60
2022-08-24T11:15:53.520Z,2.00
2022-08-24T11:18:20.997Z,2.20
2022-08-24T11:20:49.710Z,2.10
2022-08-24T11:23:31.663Z,2.40
2022-08-24T11:26:06.686Z,3.80
2022-08-24T11:28:47.000Z,2.80
2022-08-24T11:31:35.902Z,2.00
2022-08-24T11:34:08.190Z,1.90
2022-08-24T11:36:37.043Z,1.80
2022-08-24T11:39:24.243Z,1.80
2022-08-24T11:42:27.470Z,2.00
2022-08-24T11:45:21.128Z,1.90
2022-08-24T11:48:17.935Z,2.00
2022-08-24T11:50:52.418Z,1.90
2022-08-24T11:53:50.572Z,1.70
2022-08-24T11:56:26.221Z,1.70
2022-08-24T11:58:56.973Z,1.90
2022-08-24T12:01:24.542Z,1.90
2022-08-24T12:04:02.126Z,3.70
2022-08-24T12:06:54.894Z,4.60
2022-08-24T12:10:00.741Z,2.80
2022-08-24T12:12:53.045Z,1.60
2022-08-24T12:15:26.798Z,2.50
2022-08-24T12:18:10.205Z,2.00
2022-08-24T12:20:41.699Z,2.40
2022-08-24T12:23:15.109Z,2.20
2022-08-24T12:26:02.613Z,2.10
2022-08-24T12:28:41.169Z,2.20
2022-08-24T12:31:23.534Z,1.90
2022-08-24T12:33:53.030Z,2.40
2022-08-24T12:37:05.498Z,2.20
2022-08-24T12:40:27.471Z,2.10
2022-08-24T12:43:13.619Z,2.20
2022-08-24T12:45:41.506Z,2.40
2022-08-24T12:48:16.046Z,1.70
2022-08-24T12:50:52.301Z,2.10
2022-08-24T12:53:32.218Z,1.80
2022-08-24T12:56:27.735Z,1.70
2022-08-24T12:59:14.372Z,1.70
2022-08-24T13:01:46.523Z,2.10
2022-08-24T13:04:16.481Z,1.60
2022-08-24T13:07:01.197Z,2.10
2022-08-24T13:09:33.913Z,1.90
2022-08-24T13:12:41.947Z,1.50
2022-08-24T13:15:24.724Z,1.70
2022-08-24T13:18:22.651Z,2.20
2022-08-24T13:20:55.431Z,1.50
2022-08-24T13:23:24.123Z,1.60
2022-08-24T13:25:53.043Z,1.90
2022-08-24T13:28:46.299Z,1.70
2022-08-24T13:34:25.623Z,1.90
2022-08-24T13:37:15.145Z,1.80
2022-08-24T13:40:02.586Z,1.80
2022-08-24T13:42:52.305Z,1.90
2022-08-24T13:45:46.639Z,2.00
2022-08-24T13:48:40.680Z,1.70
2022-08-24T13:51:26.142Z,1.70
2022-08-24T13:54:20.194Z,1.80
2022-08-24T13:56:58.907Z,1.40
2022-08-24T13:59:53.530Z,1.70
2022-08-24T14:02:51.915Z,1.90
2022-08-24T14:05:40.534Z,1.90
2022-08-24T14:08:37.678Z,1.60
2022-08-24T14:11:22.487Z,1.80
2022-08-24T14:14:36.222Z,1.80
2022-08-24T14:17:37.267Z,1.50
2022-08-24T14:20:35.575Z,1.60
2022-08-24T14:23:06.242Z,1.80
2022-08-24T14:25:35.143Z,1.50
2022-08-24T14:28:05.832Z,1.80
2022-08-24T14:30:37.452Z,1.80
2022-08-24T14:33:18.603Z,2.00
2022-08-24T14:36:09.747Z,1.80
2022-08-24T14:38:59.941Z,2.00
2022-08-24T14:41:57.701Z,1.60
2022-08-24T14:44:45.427Z,2.10
2022-08-24T14:47:40.843Z,1.60
2022-08-24T14:50:22.994Z,2.30
2022-08-24T14:53:27.975Z,2.10
2022-08-24T14:56:11.302Z,1.80
2022-08-24T14:59:24.122Z,1.80
2022-08-24T15:02:00.318Z,1.70
2022-08-24T15:04:37.474Z,2.10
2022-08-24T15:07:23.851Z,2.10
2022-08-24T15:09:51.892Z,1.90
2022-08-24T15:12:44.613Z,1.90
2022-08-24T15:15:36.806Z,1.80
2022-08-24T15:18:25.794Z,1.80
2022-08-24T15:20:59.299Z,1.60
2022-08-24T15:23:41.378Z,2.30
2022-08-24T15:26:30.645Z,1.80
2022-08-24T15:28:59.843Z,1.60
2022-08-24T15:31:29.095Z,1.70
2022-08-24T15:34:02.391Z,1.50
2022-08-24T15:36:32.804Z,1.80
2022-08-24T15:39:03.960Z,1.60
2022-08-24T15:41:38.255Z,1.70
2022-08-24T15:44:20.422Z,1.60
2022-08-24T15:46:55.933Z,1.90
2022-08-24T15:49:31.100Z,2.10
2022-08-24T15:52:05.108Z,1.70
2022-08-24T15:54:42.091Z,1.70
2022-08-24T15:57:19.337Z,2.40
2022-08-24T15:59:49.043Z,2.60
2022-08-24T16:02:33.809Z,1.70
2022-08-24T16:05:18.136Z,2.30
2022-08-24T16:08:02.540Z,1.80
2022-08-24T16:10:40.008Z,1.80
2022-08-24T16:13:26.240Z,2.10
2022-08-24T16:16:01.851Z,1.80
2022-08-24T16:18:59.142Z,1.80
2022-08-24T16:21:34.067Z,1.80
2022-08-24T16:24:05.722Z,2.10
2022-08-24T16:26:49.818Z,1.90
2022-08-24T16:29:38.948Z,2.00
2022-08-24T16:32:45.578Z,2.10
2022-08-24T16:35:22.658Z,1.90
2022-08-24T16:37:51.483Z,2.00
2022-08-24T16:40:20.879Z,1.80
2022-08-24T16:42:49.662Z,2.20
2022-08-24T16:45:19.686Z,2.20
2022-08-24T16:47:48.780Z,2.10
2022-08-24T16:50:20.416Z,2.30
2022-08-24T16:52:49.434Z,2.20
2022-08-24T16:55:17.500Z,3.00
2022-08-24T17:00:18.061Z,3.60
2022-08-24T17:02:45.812Z,3.00
2022-08-24T17:05:13.617Z,3.70
2022-08-24T17:07:42.178Z,4.50
2022-08-24T17:10:10.775Z,3.30
2022-08-24T17:12:38.151Z,3.10
2022-08-24T17:15:07.010Z,3.00
2022-08-24T17:17:34.743Z,2.80
2022-08-24T17:20:05.810Z,2.80
2022-08-24T17:22:34.697Z,3.30
2022-08-24T17:25:02.308Z,3.10
2022-08-24T17:27:34.296Z,2.90
2022-08-24T17:30:02.981Z,2.70
2022-08-24T17:32:30.621Z,3.30
2022-08-24T17:34:58.366Z,3.40
2022-08-24T17:37:25.319Z,5.40
2022-08-24T17:39:57.497Z,3.30
2022-08-24T17:42:47.292Z,6.50
2022-08-24T17:45:13.131Z,7.30
2022-08-24T17:47:43.467Z,7.30
2022-08-24T17:50:11.748Z,5.90
2022-08-24T17:52:39.567Z,5.60
2022-08-24T17:55:07.160Z,4.80
2022-08-24T17:57:35.660Z,4.10
2022-08-24T18:00:04.253Z,4.10
2022-08-24T18:02:40.321Z,3.50
2022-08-24T18:05:08.597Z,3.60
2022-08-24T18:07:52.398Z,3.60
2022-08-24T18:10:29.109Z,2.90
2022-08-24T18:12:58.073Z,3.60
2022-08-24T18:15:35.643Z,3.40
2022-08-24T18:18:08.892Z,3.20
2022-08-24T18:20:38.365Z,3.00
2022-08-24T18:23:10.103Z,3.10
2022-08-24T18:25:43.489Z,3.10
2022-08-24T18:28:10.520Z,3.10
2022-08-24T18:30:40.663Z,3.00
2022-08-24T18:33:08.945Z,3.50
2022-08-24T18:35:36.519Z,4.10
2022-08-24T18:38:03.641Z,3.80
2022-08-24T18:40:33.402Z,4.20
2022-08-24T18:43:03.396Z,3.90
2022-08-24T18:45:31.798Z,4.10
2022-08-24T18:47:58.889Z,3.90
2022-08-24T18:50:28.949Z,4.40
2022-08-24T18:52:57.430Z,4.50
2022-08-24T18:55:24.763Z,3.80
2022-08-24T18:57:51.920Z,4.10
2022-08-24T19:00:19.635Z,3.80
2022-08-24T19:02:47.712Z,3.50
2022-08-24T19:05:20.734Z,3.70
2022-08-24T19:07:51.727Z,4.10
2022-08-24T19:10:21.770Z,4.60
2022-08-24T19:12:53.095Z,4.70
2022-08-24T19:15:34.601Z,4.80
2022-08-24T19:18:11.462Z,4.50
2022-08-24T19:20:47.425Z,5.10
2022-08-24T19:23:27.780Z,4.30
2022-08-24T19:25:55.381Z,4.10
2022-08-24T19:28:22.916Z,4.30
2022-08-24T19:30:50.256Z,4.40
2022-08-24T19:33:22.254Z,4.30
2022-08-24T19:35:50.479Z,4.30
2022-08-24T19:38:18.506Z,5.20
2022-08-24T19:40:48.466Z,6.20
2022-08-24T19:43:15.639Z,5.80
2022-08-24T19:46:02.506Z,6.10
2022-08-24T19:48:31.872Z,6.70
2022-08-24T19:51:00.347Z,7.50
2022-08-24T19:55:54.367Z,10.50
2022-08-24T19:58:29.989Z,9.80
2022-08-24T20:00:58.573Z,9.80
2022-08-24T20:03:25.678Z,9.30
2022-08-24T20:05:52.902Z,8.50
2022-08-24T20:08:20.745Z,7.50
2022-08-24T20:10:48.387Z,6.90
2022-08-24T20:13:15.483Z,6.40
2022-08-24T20:15:43.104Z,5.60
2022-08-24T20:18:10.438Z,4.90
2022-08-24T20:20:37.766Z,4.10
2022-08-24T20:23:06.541Z,3.90
2022-08-24T20:25:35.097Z,3.50
2022-08-24T20:30:49.915Z,3.00
2022-08-24T20:33:18.036Z,3.90
2022-08-24T20:35:45.415Z,3.40
2022-08-24T20:38:16.192Z,3.50
2022-08-24T20:40:43.069Z,3.70
2022-08-24T20:43:12.663Z,3.30
2022-08-24T20:45:41.352Z,3.40
2022-08-24T20:48:10.162Z,3.20
2022-08-24T20:50:37.030Z,3.20
2022-08-24T20:53:04.432Z,3.50
2022-08-24T20:55:31.554Z,2.80
2022-08-24T20:58:03.540Z,3.50
2022-08-24T21:00:31.380Z,3.30
2022-08-24T21:02:58.629Z,3.20
2022-08-24T21:05:25.499Z,3.50
2022-08-24T21:07:54.580Z,3.30
2022-08-24T21:10:24.869Z,3.50
2022-08-24T21:12:54.164Z,3.30
2022-08-24T21:15:23.397Z,3.80
2022-08-24T21:17:50.565Z,3.50
2022-08-24T21:20:18.114Z,3.80
2022-08-24T21:22:46.466Z,3.50
2022-08-24T21:25:14.502Z,3.80
2022-08-24T21:27:44.278Z,3.20
2022-08-24T21:30:14.265Z,2.80
2022-08-24T21:33:00.170Z,3.30
2022-08-24T21:35:27.515Z,3.20
2022-08-24T21:37:56.248Z,3.00
2022-08-24T21:40:23.316Z,3.30
2022-08-24T21:42:50.832Z,2.90
2022-08-24T21:45:18.974Z,3.00
2022-08-24T21:47:46.213Z,3.00
2022-08-24T21:50:13.898Z,3.60
2022-08-24T21:52:41.692Z,3.10
2022-08-24T21:55:14.188Z,2.90
2022-08-24T21:57:42.394Z,3.20
2022-08-24T22:00:13.772Z,2.70
2022-08-24T22:02:42.890Z,3.00
2022-08-24T22:05:10.554Z,3.30
2022-08-24T22:07:37.583Z,3.50
2022-08-24T22:10:07.386Z,2.90
2022-08-24T22:12:37.176Z,3.10
2022-08-24T22:15:05.476Z,3.80
2022-08-24T22:17:32.333Z,3.40
2022-08-24T22:19:59.895Z,3.00
2022-08-24T22:22:26.895Z,3.30
2022-08-24T22:24:53.888Z,2.70
2022-08-24T22:27:21.053Z,3.20
2022-08-24T22:29:52.867Z,3.20
2022-08-24T22:32:20.060Z,3.00
2022-08-24T22:34:47.011Z,3.00
2022-08-24T22:37:14.031Z,3.00
2022-08-24T22:39:41.185Z,3.20
2022-08-24T22:42:08.351Z,2.90
2022-08-24T22:44:36.058Z,3.20
2022-08-24T22:47:06.919Z,3.30
2022-08-24T22:49:41.120Z,3.30
2022-08-24T22:52:08.784Z,3.50
2022-08-24T22:54:35.924Z,3.80
2022-08-24T22:57:03.708Z,3.40
2022-08-24T22:59:36.704Z,3.30
2022-08-24T23:02:14.179Z,3.00
2022-08-24T23:04:43.450Z,3.50
2022-08-24T23:07:11.328Z,3.50
2022-08-24T23:09:44.719Z,2.90
2022-08-24T23:12:19.855Z,3.20
2022-08-24T23:14:47.910Z,3.20
2022-08-24T23:17:14.760Z,2.80
2022-08-24T23:20:00.664Z,3.40
2022-08-24T23:22:35.737Z,2.90
2022-08-24T23:25:04.400Z,3.00
2022-08-24T23:27:37.099Z,3.40
2022-08-24T23:30:08.959Z,3.10
2022-08-24T23:32:36.258Z,3.20
2022-08-24T23:35:04.134Z,2.90
2022-08-24T23:37:31.358Z,3.00
2022-08-24T23:39:58.253Z,4.00
2022-08-24T23:42:25.523Z,2.70
2022-08-24T23:44:52.863Z,3.40
2022-08-24T23:47:21.139Z,3.80
2022-08-24T23:49:48.076Z,3.20
2022-08-24T23:52:28.374Z,3.00
2022-08-24T23:55:05.205Z,3.50
